sensor_id;sensor_type;location;lat;lon;timestamp;P1;durP1;ratioP1;P2;durP2;ratioP2
7899;SDS011;3995;50.856;4.404;2022-12-11T00:02:11;12.00;;;10.73;;
7899;SDS011;3995;50.856;4.404;2022-12-11T00:04:39;11.98;;;10.05;;
7899;SDS011;3995;50.856;4.404;2022-12-11T00:07:06;11.52;;;10.30;;
7899;SDS011;3995;50.856;4.404;2022-12-11T00:09:33;11.35;;;9.63;;
7899;SDS011;3995;50.856;4.404;2022-12-11T00:12:02;12.23;;;9.98;;
7899;SDS011;3995;50.856;4.404;2022-12-11T00:14:31;11.82;;;10.63;;
7899;SDS011;3995;50.856;4.404;2022-12-11T00:16:59;11.00;;;9.90;;
7899;SDS011;3995;50.856;4.404;2022-12-11T00:19:28;12.45;;;9.65;;
7899;SDS011;3995;50.856;4.404;2022-12-11T00:21:55;11.90;;;9.75;;
7899;SDS011;3995;50.856;4.404;2022-12-11T00:24:23;11.75;;;10.15;;
7899;SDS011;3995;50.856;4.404;2022-12-11T00:26:50;15.75;;;10.70;;
7899;SDS011;3995;50.856;4.404;2022-12-11T00:29:18;12.30;;;10.57;;
7899;SDS011;3995;50.856;4.404;2022-12-11T00:31:44;11.85;;;10.65;;
7899;SDS011;3995;50.856;4.404;2022-12-11T00:34:12;12.20;;;10.93;;
7899;SDS011;3995;50.856;4.404;2022-12-11T00:36:41;15.35;;;10.57;;
7899;SDS011;3995;50.856;4.404;2022-12-11T00:39:09;12.60;;;9.82;;
7899;SDS011;3995;50.856;4.404;2022-12-11T00:41:36;14.38;;;10.90;;
7899;SDS011;3995;50.856;4.404;2022-12-11T00:44:04;11.85;;;10.20;;
7899;SDS011;3995;50.856;4.404;2022-12-11T00:46:31;11.52;;;9.80;;
7899;SDS011;3995;50.856;4.404;2022-12-11T00:48:58;10.88;;;9.40;;
7899;SDS011;3995;50.856;4.404;2022-12-11T00:51:25;10.90;;;9.70;;
7899;SDS011;3995;50.856;4.404;2022-12-11T00:53:54;11.93;;;10.07;;
7899;SDS011;3995;50.856;4.404;2022-12-11T00:56:22;12.15;;;10.77;;
7899;SDS011;3995;50.856;4.404;2022-12-11T00:58:49;11.07;;;10.00;;
7899;SDS011;3995;50.856;4.404;2022-12-11T01:01:17;12.55;;;10.80;;
7899;SDS011;3995;50.856;4.404;2022-12-11T01:03:46;13.65;;;10.57;;
7899;SDS011;3995;50.856;4.404;2022-12-11T01:06:15;13.15;;;11.25;;
7899;SDS011;3995;50.856;4.404;2022-12-11T01:08:43;14.55;;;10.40;;
7899;SDS011;3995;50.856;4.404;2022-12-11T01:11:13;14.00;;;11.30;;
7899;SDS011;3995;50.856;4.404;2022-12-11T01:13:41;11.98;;;10.77;;
7899;SDS011;3995;50.856;4.404;2022-12-11T01:16:09;11.65;;;10.45;;
7899;SDS011;3995;50.856;4.404;2022-12-11T01:18:37;12.90;;;11.25;;
7899;SDS011;3995;50.856;4.404;2022-12-11T01:21:06;13.70;;;11.57;;
7899;SDS011;3995;50.856;4.404;2022-12-11T01:23:36;11.90;;;10.68;;
7899;SDS011;3995;50.856;4.404;2022-12-11T01:26:05;11.77;;;10.57;;
7899;SDS011;3995;50.856;4.404;2022-12-11T01:28:35;12.85;;;11.38;;
7899;SDS011;3995;50.856;4.404;2022-12-11T01:31:06;11.88;;;10.70;;
7899;SDS011;3995;50.856;4.404;2022-12-11T01:33:34;11.00;;;9.90;;
7899;SDS011;3995;50.856;4.404;2022-12-11T01:36:05;12.68;;;11.40;;
7899;SDS011;3995;50.856;4.404;2022-12-11T01:38:33;12.15;;;10.50;;
7899;SDS011;3995;50.856;4.404;2022-12-11T01:41:00;11.70;;;10.20;;
7899;SDS011;3995;50.856;4.404;2022-12-11T01:43:27;13.18;;;11.77;;
7899;SDS011;3995;50.856;4.404;2022-12-11T01:45:56;12.63;;;11.00;;
7899;SDS011;3995;50.856;4.404;2022-12-11T01:48:24;12.75;;;11.45;;
7899;SDS011;3995;50.856;4.404;2022-12-11T01:50:54;12.07;;;10.60;;
7899;SDS011;3995;50.856;4.404;2022-12-11T01:53:25;12.73;;;11.00;;
7899;SDS011;3995;50.856;4.404;2022-12-11T01:55:54;12.02;;;10.82;;
7899;SDS011;3995;50.856;4.404;2022-12-11T01:58:24;13.35;;;12.05;;
7899;SDS011;3995;50.856;4.404;2022-12-11T02:00:54;13.52;;;11.05;;
7899;SDS011;3995;50.856;4.404;2022-12-11T02:03:24;14.02;;;11.65;;
7899;SDS011;3995;50.856;4.404;2022-12-11T02:05:51;13.40;;;12.05;;
7899;SDS011;3995;50.856;4.404;2022-12-11T02:08:18;13.20;;;11.80;;
7899;SDS011;3995;50.856;4.404;2022-12-11T02:10:48;14.23;;;12.05;;
7899;SDS011;3995;50.856;4.404;2022-12-11T02:13:28;13.68;;;12.27;;
7899;SDS011;3995;50.856;4.404;2022-12-11T02:16:04;13.98;;;12.55;;
7899;SDS011;3995;50.856;4.404;2022-12-11T02:18:35;13.70;;;12.23;;
7899;SDS011;3995;50.856;4.404;2022-12-11T02:21:07;14.30;;;12.68;;
7899;SDS011;3995;50.856;4.404;2022-12-11T02:26:46;14.23;;;11.80;;
7899;SDS011;3995;50.856;4.404;2022-12-11T02:29:42;12.90;;;11.60;;
7899;SDS011;3995;50.856;4.404;2022-12-11T02:32:15;13.68;;;12.30;;
7899;SDS011;3995;50.856;4.404;2022-12-11T02:34:49;13.15;;;11.75;;
7899;SDS011;3995;50.856;4.404;2022-12-11T02:37:22;13.60;;;11.95;;
7899;SDS011;3995;50.856;4.404;2022-12-11T02:39:53;13.70;;;12.25;;
7899;SDS011;3995;50.856;4.404;2022-12-11T02:42:22;13.75;;;11.40;;
7899;SDS011;3995;50.856;4.404;2022-12-11T02:44:55;14.88;;;12.23;;
7899;SDS011;3995;50.856;4.404;2022-12-11T02:47:25;13.43;;;11.95;;
7899;SDS011;3995;50.856;4.404;2022-12-11T02:49:57;13.13;;;11.73;;
7899;SDS011;3995;50.856;4.404;2022-12-11T02:52:27;15.45;;;12.00;;
7899;SDS011;3995;50.856;4.404;2022-12-11T02:54:56;13.82;;;12.32;;
7899;SDS011;3995;50.856;4.404;2022-12-11T02:57:27;13.50;;;12.20;;
7899;SDS011;3995;50.856;4.404;2022-12-11T03:00:03;14.63;;;11.20;;
7899;SDS011;3995;50.856;4.404;2022-12-11T03:02:31;15.38;;;12.43;;
7899;SDS011;3995;50.856;4.404;2022-12-11T03:04:58;14.40;;;12.60;;
7899;SDS011;3995;50.856;4.404;2022-12-11T03:07:27;13.82;;;12.43;;
7899;SDS011;3995;50.856;4.404;2022-12-11T03:09:58;14.43;;;11.90;;
7899;SDS011;3995;50.856;4.404;2022-12-11T03:12:27;14.55;;;13.15;;
7899;SDS011;3995;50.856;4.404;2022-12-11T03:14:56;13.10;;;11.73;;
7899;SDS011;3995;50.856;4.404;2022-12-11T03:17:29;14.57;;;13.07;;
7899;SDS011;3995;50.856;4.404;2022-12-11T03:20:02;15.35;;;13.48;;
7899;SDS011;3995;50.856;4.404;2022-12-11T03:22:38;14.13;;;12.63;;
7899;SDS011;3995;50.856;4.404;2022-12-11T03:25:12;15.20;;;13.60;;
7899;SDS011;3995;50.856;4.404;2022-12-11T03:27:46;14.60;;;13.00;;
7899;SDS011;3995;50.856;4.404;2022-12-11T03:30:18;16.85;;;14.35;;
7899;SDS011;3995;50.856;4.404;2022-12-11T03:32:50;16.88;;;14.98;;
7899;SDS011;3995;50.856;4.404;2022-12-11T03:35:23;17.13;;;14.25;;
7899;SDS011;3995;50.856;4.404;2022-12-11T03:37:53;18.67;;;15.20;;
7899;SDS011;3995;50.856;4.404;2022-12-11T03:40:23;18.35;;;14.15;;
7899;SDS011;3995;50.856;4.404;2022-12-11T03:42:51;17.00;;;14.50;;
7899;SDS011;3995;50.856;4.404;2022-12-11T03:45:22;17.67;;;15.10;;
7899;SDS011;3995;50.856;4.404;2022-12-11T03:47:53;16.30;;;13.93;;
7899;SDS011;3995;50.856;4.404;2022-12-11T03:50:23;23.73;;;15.15;;
7899;SDS011;3995;50.856;4.404;2022-12-11T03:52:53;18.27;;;14.80;;
7899;SDS011;3995;50.856;4.404;2022-12-11T03:55:22;17.27;;;15.43;;
7899;SDS011;3995;50.856;4.404;2022-12-11T03:57:51;16.73;;;14.55;;
7899;SDS011;3995;50.856;4.404;2022-12-11T04:00:19;18.80;;;14.50;;
7899;SDS011;3995;50.856;4.404;2022-12-11T04:02:47;20.00;;;16.60;;
7899;SDS011;3995;50.856;4.404;2022-12-11T04:05:36;17.50;;;15.60;;
7899;SDS011;3995;50.856;4.404;2022-12-11T04:08:03;17.42;;;14.95;;
7899;SDS011;3995;50.856;4.404;2022-12-11T04:10:31;18.77;;;16.40;;
7899;SDS011;3995;50.856;4.404;2022-12-11T04:12:58;20.17;;;16.05;;
7899;SDS011;3995;50.856;4.404;2022-12-11T04:15:26;21.65;;;15.50;;
7899;SDS011;3995;50.856;4.404;2022-12-11T04:17:51;20.87;;;16.43;;
7899;SDS011;3995;50.856;4.404;2022-12-11T04:20:38;18.58;;;15.38;;
7899;SDS011;3995;50.856;4.404;2022-12-11T04:23:22;17.75;;;15.85;;
7899;SDS011;3995;50.856;4.404;2022-12-11T04:26:06;18.63;;;16.05;;
7899;SDS011;3995;50.856;4.404;2022-12-11T04:28:35;18.45;;;15.80;;
7899;SDS011;3995;50.856;4.404;2022-12-11T04:31:03;25.13;;;16.25;;
7899;SDS011;3995;50.856;4.404;2022-12-11T04:33:31;18.33;;;16.35;;
7899;SDS011;3995;50.856;4.404;2022-12-11T04:35:59;19.30;;;16.10;;
7899;SDS011;3995;50.856;4.404;2022-12-11T04:38:27;21.10;;;17.13;;
7899;SDS011;3995;50.856;4.404;2022-12-11T04:40:57;20.00;;;17.08;;
7899;SDS011;3995;50.856;4.404;2022-12-11T04:43:25;19.15;;;15.65;;
7899;SDS011;3995;50.856;4.404;2022-12-11T04:45:59;19.25;;;15.63;;
7899;SDS011;3995;50.856;4.404;2022-12-11T04:48:27;18.45;;;15.68;;
7899;SDS011;3995;50.856;4.404;2022-12-11T04:50:54;20.45;;;16.92;;
7899;SDS011;3995;50.856;4.404;2022-12-11T04:53:23;19.15;;;16.42;;
7899;SDS011;3995;50.856;4.404;2022-12-11T04:55:51;19.17;;;15.85;;
7899;SDS011;3995;50.856;4.404;2022-12-11T04:58:18;19.77;;;16.30;;
7899;SDS011;3995;50.856;4.404;2022-12-11T05:00:46;19.38;;;16.40;;
7899;SDS011;3995;50.856;4.404;2022-12-11T05:03:14;21.02;;;16.23;;
7899;SDS011;3995;50.856;4.404;2022-12-11T05:05:46;18.17;;;15.68;;
7899;SDS011;3995;50.856;4.404;2022-12-11T05:08:14;18.98;;;15.05;;
7899;SDS011;3995;50.856;4.404;2022-12-11T05:10:53;20.52;;;16.70;;
7899;SDS011;3995;50.856;4.404;2022-12-11T05:13:21;17.65;;;15.55;;
7899;SDS011;3995;50.856;4.404;2022-12-11T05:15:48;19.08;;;15.82;;
7899;SDS011;3995;50.856;4.404;2022-12-11T05:18:15;16.83;;;15.00;;
7899;SDS011;3995;50.856;4.404;2022-12-11T05:20:42;21.65;;;16.00;;
7899;SDS011;3995;50.856;4.404;2022-12-11T05:23:10;17.85;;;15.95;;
7899;SDS011;3995;50.856;4.404;2022-12-11T05:25:37;19.33;;;15.50;;
7899;SDS011;3995;50.856;4.404;2022-12-11T05:28:06;17.45;;;15.55;;
7899;SDS011;3995;50.856;4.404;2022-12-11T05:30:33;17.23;;;15.40;;
7899;SDS011;3995;50.856;4.404;2022-12-11T05:33:00;18.17;;;15.80;;
7899;SDS011;3995;50.856;4.404;2022-12-11T05:35:27;21.08;;;14.82;;
7899;SDS011;3995;50.856;4.404;2022-12-11T05:37:54;16.83;;;15.07;;
7899;SDS011;3995;50.856;4.404;2022-12-11T05:40:23;16.45;;;14.73;;
7899;SDS011;3995;50.856;4.404;2022-12-11T05:42:51;18.95;;;16.08;;
7899;SDS011;3995;50.856;4.404;2022-12-11T05:45:20;18.67;;;15.57;;
7899;SDS011;3995;50.856;4.404;2022-12-11T05:47:47;18.15;;;15.38;;
7899;SDS011;3995;50.856;4.404;2022-12-11T05:50:14;18.42;;;14.95;;
7899;SDS011;3995;50.856;4.404;2022-12-11T05:52:41;18.08;;;16.02;;
7899;SDS011;3995;50.856;4.404;2022-12-11T05:55:09;18.20;;;15.65;;
7899;SDS011;3995;50.856;4.404;2022-12-11T05:57:36;20.88;;;15.98;;
7899;SDS011;3995;50.856;4.404;2022-12-11T06:00:04;18.80;;;15.50;;
7899;SDS011;3995;50.856;4.404;2022-12-11T06:02:34;19.85;;;17.00;;
7899;SDS011;3995;50.856;4.404;2022-12-11T06:05:02;26.65;;;15.60;;
7899;SDS011;3995;50.856;4.404;2022-12-11T06:07:29;18.15;;;16.23;;
7899;SDS011;3995;50.856;4.404;2022-12-11T06:09:56;17.13;;;15.45;;
7899;SDS011;3995;50.856;4.404;2022-12-11T06:12:24;17.30;;;15.50;;
7899;SDS011;3995;50.856;4.404;2022-12-11T06:14:52;18.45;;;14.73;;
7899;SDS011;3995;50.856;4.404;2022-12-11T06:17:20;17.85;;;15.43;;
7899;SDS011;3995;50.856;4.404;2022-12-11T06:19:49;20.70;;;15.63;;
7899;SDS011;3995;50.856;4.404;2022-12-11T06:22:16;19.63;;;16.40;;
7899;SDS011;3995;50.856;4.404;2022-12-11T06:24:43;17.70;;;15.52;;
7899;SDS011;3995;50.856;4.404;2022-12-11T06:27:12;18.33;;;15.85;;
7899;SDS011;3995;50.856;4.404;2022-12-11T06:29:39;20.58;;;17.02;;
7899;SDS011;3995;50.856;4.404;2022-12-11T06:32:06;18.42;;;15.60;;
7899;SDS011;3995;50.856;4.404;2022-12-11T06:34:34;19.80;;;16.55;;
7899;SDS011;3995;50.856;4.404;2022-12-11T06:37:03;22.20;;;16.67;;
7899;SDS011;3995;50.856;4.404;2022-12-11T06:39:31;17.48;;;15.48;;
7899;SDS011;3995;50.856;4.404;2022-12-11T06:41:59;17.00;;;14.55;;
7899;SDS011;3995;50.856;4.404;2022-12-11T06:44:26;19.20;;;15.20;;
7899;SDS011;3995;50.856;4.404;2022-12-11T06:46:53;16.92;;;14.40;;
7899;SDS011;3995;50.856;4.404;2022-12-11T06:49:21;15.95;;;14.25;;
7899;SDS011;3995;50.856;4.404;2022-12-11T06:51:48;17.55;;;15.48;;
7899;SDS011;3995;50.856;4.404;2022-12-11T06:54:17;18.98;;;14.10;;
7899;SDS011;3995;50.856;4.404;2022-12-11T06:56:44;16.42;;;14.65;;
7899;SDS011;3995;50.856;4.404;2022-12-11T06:59:12;17.25;;;15.40;;
7899;SDS011;3995;50.856;4.404;2022-12-11T07:01:39;17.60;;;15.70;;
7899;SDS011;3995;50.856;4.404;2022-12-11T07:04:07;17.83;;;15.93;;
7899;SDS011;3995;50.856;4.404;2022-12-11T07:06:35;22.67;;;15.15;;
7899;SDS011;3995;50.856;4.404;2022-12-11T07:09:02;18.15;;;15.10;;
7899;SDS011;3995;50.856;4.404;2022-12-11T07:11:32;18.58;;;15.75;;
7899;SDS011;3995;50.856;4.404;2022-12-11T07:13:59;18.55;;;14.90;;
7899;SDS011;3995;50.856;4.404;2022-12-11T07:16:26;19.58;;;16.55;;
7899;SDS011;3995;50.856;4.404;2022-12-11T07:18:53;18.92;;;16.08;;
7899;SDS011;3995;50.856;4.404;2022-12-11T07:21:20;19.98;;;17.27;;
7899;SDS011;3995;50.856;4.404;2022-12-11T07:23:47;16.80;;;15.05;;
7899;SDS011;3995;50.856;4.404;2022-12-11T07:26:15;18.60;;;15.88;;
7899;SDS011;3995;50.856;4.404;2022-12-11T07:28:46;16.63;;;14.80;;
7899;SDS011;3995;50.856;4.404;2022-12-11T07:31:14;17.50;;;15.55;;
7899;SDS011;3995;50.856;4.404;2022-12-11T07:33:43;17.88;;;15.25;;
7899;SDS011;3995;50.856;4.404;2022-12-11T07:36:11;19.35;;;15.70;;
7899;SDS011;3995;50.856;4.404;2022-12-11T07:38:39;19.88;;;15.65;;
7899;SDS011;3995;50.856;4.404;2022-12-11T07:41:09;18.33;;;14.77;;
7899;SDS011;3995;50.856;4.404;2022-12-11T07:43:38;17.98;;;14.70;;
7899;SDS011;3995;50.856;4.404;2022-12-11T07:46:07;18.30;;;15.90;;
7899;SDS011;3995;50.856;4.404;2022-12-11T07:48:39;19.40;;;16.92;;
7899;SDS011;3995;50.856;4.404;2022-12-11T07:51:08;19.20;;;16.25;;
7899;SDS011;3995;50.856;4.404;2022-12-11T07:53:36;20.13;;;14.98;;
7899;SDS011;3995;50.856;4.404;2022-12-11T07:56:04;18.33;;;14.73;;
7899;SDS011;3995;50.856;4.404;2022-12-11T07:58:32;15.85;;;14.20;;
7899;SDS011;3995;50.856;4.404;2022-12-11T08:01:00;15.68;;;13.90;;
7899;SDS011;3995;50.856;4.404;2022-12-11T08:03:28;15.32;;;13.68;;
7899;SDS011;3995;50.856;4.404;2022-12-11T08:05:56;16.05;;;14.05;;
7899;SDS011;3995;50.856;4.404;2022-12-11T08:08:23;14.70;;;13.10;;
7899;SDS011;3995;50.856;4.404;2022-12-11T08:10:50;16.67;;;14.32;;
7899;SDS011;3995;50.856;4.404;2022-12-11T08:13:17;16.80;;;14.00;;
7899;SDS011;3995;50.856;4.404;2022-12-11T08:15:45;16.65;;;12.38;;
7899;SDS011;3995;50.856;4.404;2022-12-11T08:18:13;17.23;;;13.55;;
7899;SDS011;3995;50.856;4.404;2022-12-11T08:20:41;17.48;;;14.15;;
7899;SDS011;3995;50.856;4.404;2022-12-11T08:23:09;16.30;;;14.45;;
7899;SDS011;3995;50.856;4.404;2022-12-11T08:25:36;15.65;;;13.95;;
7899;SDS011;3995;50.856;4.404;2022-12-11T08:28:03;15.68;;;13.88;;
7899;SDS011;3995;50.856;4.404;2022-12-11T08:30:31;17.75;;;14.40;;
7899;SDS011;3995;50.856;4.404;2022-12-11T08:32:58;15.00;;;12.85;;
7899;SDS011;3995;50.856;4.404;2022-12-11T08:35:26;17.63;;;14.48;;
7899;SDS011;3995;50.856;4.404;2022-12-11T08:37:55;16.20;;;14.30;;
7899;SDS011;3995;50.856;4.404;2022-12-11T08:40:22;17.45;;;13.25;;
7899;SDS011;3995;50.856;4.404;2022-12-11T08:42:49;17.75;;;14.80;;
7899;SDS011;3995;50.856;4.404;2022-12-11T08:45:17;15.40;;;13.80;;
7899;SDS011;3995;50.856;4.404;2022-12-11T08:47:44;15.85;;;14.15;;
7899;SDS011;3995;50.856;4.404;2022-12-11T08:50:12;16.88;;;14.45;;
7899;SDS011;3995;50.856;4.404;2022-12-11T08:52:40;14.68;;;13.07;;
7899;SDS011;3995;50.856;4.404;2022-12-11T08:55:08;15.25;;;13.60;;
7899;SDS011;3995;50.856;4.404;2022-12-11T08:57:36;17.77;;;14.75;;
7899;SDS011;3995;50.856;4.404;2022-12-11T09:00:04;15.45;;;13.50;;
7899;SDS011;3995;50.856;4.404;2022-12-11T09:02:33;17.15;;;14.20;;
7899;SDS011;3995;50.856;4.404;2022-12-11T09:05:00;18.98;;;13.80;;
7899;SDS011;3995;50.856;4.404;2022-12-11T09:07:31;15.82;;;13.32;;
7899;SDS011;3995;50.856;4.404;2022-12-11T09:09:58;15.18;;;13.57;;
7899;SDS011;3995;50.856;4.404;2022-12-11T09:12:27;19.23;;;14.38;;
7899;SDS011;3995;50.856;4.404;2022-12-11T09:14:55;18.73;;;14.40;;
7899;SDS011;3995;50.856;4.404;2022-12-11T09:17:22;14.98;;;12.98;;
7899;SDS011;3995;50.856;4.404;2022-12-11T09:19:50;17.42;;;13.68;;
7899;SDS011;3995;50.856;4.404;2022-12-11T09:22:17;15.80;;;13.98;;
7899;SDS011;3995;50.856;4.404;2022-12-11T09:24:45;16.80;;;13.70;;
7899;SDS011;3995;50.856;4.404;2022-12-11T09:27:12;17.73;;;14.52;;
7899;SDS011;3995;50.856;4.404;2022-12-11T09:29:41;18.52;;;14.50;;
7899;SDS011;3995;50.856;4.404;2022-12-11T09:32:08;15.98;;;12.82;;
7899;SDS011;3995;50.856;4.404;2022-12-11T09:34:35;15.82;;;14.15;;
7899;SDS011;3995;50.856;4.404;2022-12-11T09:37:02;18.73;;;14.30;;
7899;SDS011;3995;50.856;4.404;2022-12-11T09:39:29;16.48;;;13.35;;
7899;SDS011;3995;50.856;4.404;2022-12-11T09:41:59;15.68;;;12.85;;
7899;SDS011;3995;50.856;4.404;2022-12-11T09:44:30;18.08;;;13.57;;
7899;SDS011;3995;50.856;4.404;2022-12-11T09:47:03;16.98;;;13.35;;
7899;SDS011;3995;50.856;4.404;2022-12-11T09:49:43;15.05;;;12.43;;
7899;SDS011;3995;50.856;4.404;2022-12-11T09:52:12;13.20;;;11.80;;
7899;SDS011;3995;50.856;4.404;2022-12-11T09:54:44;15.05;;;12.65;;
7899;SDS011;3995;50.856;4.404;2022-12-11T09:57:18;16.58;;;12.77;;
7899;SDS011;3995;50.856;4.404;2022-12-11T09:59:59;17.83;;;14.02;;
7899;SDS011;3995;50.856;4.404;2022-12-11T10:02:56;15.00;;;12.45;;
7899;SDS011;3995;50.856;4.404;2022-12-11T10:05:52;18.42;;;13.38;;
7899;SDS011;3995;50.856;4.404;2022-12-11T10:08:27;17.55;;;13.32;;
7899;SDS011;3995;50.856;4.404;2022-12-11T10:11:00;17.55;;;13.63;;
7899;SDS011;3995;50.856;4.404;2022-12-11T10:13:40;15.25;;;13.02;;
7899;SDS011;3995;50.856;4.404;2022-12-11T10:16:16;16.35;;;13.45;;
7899;SDS011;3995;50.856;4.404;2022-12-11T10:18:52;18.00;;;14.20;;
7899;SDS011;3995;50.856;4.404;2022-12-11T10:21:20;17.80;;;14.82;;
7899;SDS011;3995;50.856;4.404;2022-12-11T10:23:49;16.48;;;13.88;;
7899;SDS011;3995;50.856;4.404;2022-12-11T10:26:20;16.08;;;13.98;;
7899;SDS011;3995;50.856;4.404;2022-12-11T10:28:48;18.45;;;15.00;;
7899;SDS011;3995;50.856;4.404;2022-12-11T10:31:16;19.75;;;14.80;;
7899;SDS011;3995;50.856;4.404;2022-12-11T10:33:49;18.83;;;14.82;;
7899;SDS011;3995;50.856;4.404;2022-12-11T10:36:26;16.48;;;14.68;;
7899;SDS011;3995;50.856;4.404;2022-12-11T10:38:54;16.40;;;13.35;;
7899;SDS011;3995;50.856;4.404;2022-12-11T10:41:23;35.47;;;16.73;;
7899;SDS011;3995;50.856;4.404;2022-12-11T10:43:59;18.80;;;13.82;;
7899;SDS011;3995;50.856;4.404;2022-12-11T10:46:28;17.35;;;14.38;;
7899;SDS011;3995;50.856;4.404;2022-12-11T10:48:58;16.92;;;14.25;;
7899;SDS011;3995;50.856;4.404;2022-12-11T10:51:32;18.73;;;14.30;;
7899;SDS011;3995;50.856;4.404;2022-12-11T10:54:02;15.98;;;13.05;;
7899;SDS011;3995;50.856;4.404;2022-12-11T10:56:32;19.27;;;14.02;;
7899;SDS011;3995;50.856;4.404;2022-12-11T10:59:02;19.27;;;14.05;;
7899;SDS011;3995;50.856;4.404;2022-12-11T11:01:30;17.75;;;14.43;;
7899;SDS011;3995;50.856;4.404;2022-12-11T11:04:01;18.02;;;14.20;;
7899;SDS011;3995;50.856;4.404;2022-12-11T11:06:31;19.13;;;13.95;;
7899;SDS011;3995;50.856;4.404;2022-12-11T11:08:59;19.15;;;14.15;;
7899;SDS011;3995;50.856;4.404;2022-12-11T11:11:28;19.00;;;13.57;;
7899;SDS011;3995;50.856;4.404;2022-12-11T11:14:04;17.77;;;14.20;;
7899;SDS011;3995;50.856;4.404;2022-12-11T11:16:34;16.48;;;12.80;;
7899;SDS011;3995;50.856;4.404;2022-12-11T11:19:04;16.13;;;11.60;;
7899;SDS011;3995;50.856;4.404;2022-12-11T11:21:33;16.63;;;12.82;;
7899;SDS011;3995;50.856;4.404;2022-12-11T11:24:01;15.20;;;12.45;;
7899;SDS011;3995;50.856;4.404;2022-12-11T11:26:30;19.10;;;12.77;;
7899;SDS011;3995;50.856;4.404;2022-12-11T11:28:58;15.23;;;11.60;;
7899;SDS011;3995;50.856;4.404;2022-12-11T11:31:30;14.55;;;11.23;;
7899;SDS011;3995;50.856;4.404;2022-12-11T11:33:59;15.98;;;11.85;;
7899;SDS011;3995;50.856;4.404;2022-12-11T11:36:30;15.75;;;12.20;;
7899;SDS011;3995;50.856;4.404;2022-12-11T11:39:02;19.83;;;12.65;;
7899;SDS011;3995;50.856;4.404;2022-12-11T11:41:42;16.83;;;13.07;;
7899;SDS011;3995;50.856;4.404;2022-12-11T11:44:15;15.18;;;12.00;;
7899;SDS011;3995;50.856;4.404;2022-12-11T11:46:52;16.05;;;12.07;;
7899;SDS011;3995;50.856;4.404;2022-12-11T11:49:23;16.15;;;12.27;;
7899;SDS011;3995;50.856;4.404;2022-12-11T11:51:58;19.15;;;12.57;;
7899;SDS011;3995;50.856;4.404;2022-12-11T11:54:34;14.70;;;11.30;;
7899;SDS011;3995;50.856;4.404;2022-12-11T11:57:13;14.10;;;11.93;;
7899;SDS011;3995;50.856;4.404;2022-12-11T11:59:44;16.75;;;11.90;;
7899;SDS011;3995;50.856;4.404;2022-12-11T12:02:15;14.93;;;10.32;;
7899;SDS011;3995;50.856;4.404;2022-12-11T12:04:44;12.07;;;10.25;;
7899;SDS011;3995;50.856;4.404;2022-12-11T12:07:19;11.43;;;9.48;;
7899;SDS011;3995;50.856;4.404;2022-12-11T12:09:57;17.38;;;10.93;;
7899;SDS011;3995;50.856;4.404;2022-12-11T12:12:35;11.90;;;9.80;;
7899;SDS011;3995;50.856;4.404;2022-12-11T12:15:19;14.93;;;9.65;;
7899;SDS011;3995;50.856;4.404;2022-12-11T12:17:55;20.77;;;11.77;;
7899;SDS011;3995;50.856;4.404;2022-12-11T12:20:27;13.55;;;9.85;;
7899;SDS011;3995;50.856;4.404;2022-12-11T12:23:10;12.48;;;9.05;;
7899;SDS011;3995;50.856;4.404;2022-12-11T12:25:57;12.85;;;9.82;;
7899;SDS011;3995;50.856;4.404;2022-12-11T12:28:35;18.58;;;8.85;;
7899;SDS011;3995;50.856;4.404;2022-12-11T12:31:13;10.25;;;8.30;;
7899;SDS011;3995;50.856;4.404;2022-12-11T12:33:52;11.88;;;9.45;;
7899;SDS011;3995;50.856;4.404;2022-12-11T12:36:30;13.15;;;9.70;;
7899;SDS011;3995;50.856;4.404;2022-12-11T12:39:10;12.68;;;9.27;;
7899;SDS011;3995;50.856;4.404;2022-12-11T12:41:45;11.55;;;8.95;;
7899;SDS011;3995;50.856;4.404;2022-12-11T12:44:19;13.73;;;10.40;;
7899;SDS011;3995;50.856;4.404;2022-12-11T12:46:50;16.25;;;11.77;;
7899;SDS011;3995;50.856;4.404;2022-12-11T12:49:27;14.55;;;11.63;;
7899;SDS011;3995;50.856;4.404;2022-12-11T12:51:59;14.05;;;11.13;;
7899;SDS011;3995;50.856;4.404;2022-12-11T12:54:30;17.73;;;11.65;;
7899;SDS011;3995;50.856;4.404;2022-12-11T12:56:59;13.80;;;11.07;;
7899;SDS011;3995;50.856;4.404;2022-12-11T12:59:29;13.68;;;10.75;;
7899;SDS011;3995;50.856;4.404;2022-12-11T13:01:57;15.32;;;11.15;;
7899;SDS011;3995;50.856;4.404;2022-12-11T13:04:33;13.93;;;11.73;;
7899;SDS011;3995;50.856;4.404;2022-12-11T13:07:09;14.52;;;11.45;;
7899;SDS011;3995;50.856;4.404;2022-12-11T13:09:53;17.58;;;12.90;;
7899;SDS011;3995;50.856;4.404;2022-12-11T13:12:29;16.77;;;11.55;;
7899;SDS011;3995;50.856;4.404;2022-12-11T13:17:49;17.45;;;15.10;;
7899;SDS011;3995;50.856;4.404;2022-12-11T13:20:17;23.38;;;16.67;;
7899;SDS011;3995;50.856;4.404;2022-12-11T13:22:46;17.52;;;13.90;;
7899;SDS011;3995;50.856;4.404;2022-12-11T13:25:20;17.48;;;13.70;;
7899;SDS011;3995;50.856;4.404;2022-12-11T13:27:50;17.45;;;13.43;;
7899;SDS011;3995;50.856;4.404;2022-12-11T13:30:22;20.27;;;13.57;;
7899;SDS011;3995;50.856;4.404;2022-12-11T13:32:55;18.02;;;13.18;;
7899;SDS011;3995;50.856;4.404;2022-12-11T13:35:27;20.30;;;14.70;;
7899;SDS011;3995;50.856;4.404;2022-12-11T13:37:57;23.45;;;14.10;;
7899;SDS011;3995;50.856;4.404;2022-12-11T13:40:35;17.73;;;13.45;;
7899;SDS011;3995;50.856;4.404;2022-12-11T13:43:05;23.40;;;14.07;;
7899;SDS011;3995;50.856;4.404;2022-12-11T13:45:43;18.38;;;13.73;;
7899;SDS011;3995;50.856;4.404;2022-12-11T13:48:16;17.80;;;13.70;;
7899;SDS011;3995;50.856;4.404;2022-12-11T13:50:46;16.92;;;13.80;;
7899;SDS011;3995;50.856;4.404;2022-12-11T13:53:16;21.45;;;14.35;;
7899;SDS011;3995;50.856;4.404;2022-12-11T13:55:54;20.25;;;15.73;;
7899;SDS011;3995;50.856;4.404;2022-12-11T13:58:22;20.15;;;14.95;;
7899;SDS011;3995;50.856;4.404;2022-12-11T14:00:56;18.63;;;15.18;;
7899;SDS011;3995;50.856;4.404;2022-12-11T14:03:29;21.35;;;15.25;;
7899;SDS011;3995;50.856;4.404;2022-12-11T14:05:57;20.45;;;15.55;;
7899;SDS011;3995;50.856;4.404;2022-12-11T14:08:26;20.83;;;14.85;;
7899;SDS011;3995;50.856;4.404;2022-12-11T14:10:59;19.23;;;14.95;;
7899;SDS011;3995;50.856;4.404;2022-12-11T14:13:30;18.60;;;14.50;;
7899;SDS011;3995;50.856;4.404;2022-12-11T14:15:59;18.92;;;14.52;;
7899;SDS011;3995;50.856;4.404;2022-12-11T14:18:27;21.95;;;14.93;;
7899;SDS011;3995;50.856;4.404;2022-12-11T14:20:57;20.95;;;14.95;;
7899;SDS011;3995;50.856;4.404;2022-12-11T14:23:26;17.40;;;13.70;;
7899;SDS011;3995;50.856;4.404;2022-12-11T14:25:55;19.70;;;14.85;;
7899;SDS011;3995;50.856;4.404;2022-12-11T14:28:25;19.30;;;15.75;;
7899;SDS011;3995;50.856;4.404;2022-12-11T14:30:56;17.45;;;14.30;;
7899;SDS011;3995;50.856;4.404;2022-12-11T14:33:27;19.83;;;15.05;;
7899;SDS011;3995;50.856;4.404;2022-12-11T14:35:58;18.20;;;14.55;;
7899;SDS011;3995;50.856;4.404;2022-12-11T14:38:28;24.15;;;15.30;;
7899;SDS011;3995;50.856;4.404;2022-12-11T14:41:02;18.55;;;14.98;;
7899;SDS011;3995;50.856;4.404;2022-12-11T14:43:35;18.40;;;14.02;;
7899;SDS011;3995;50.856;4.404;2022-12-11T14:46:09;20.65;;;16.80;;
7899;SDS011;3995;50.856;4.404;2022-12-11T14:48:42;21.58;;;15.00;;
7899;SDS011;3995;50.856;4.404;2022-12-11T14:51:15;22.38;;;17.13;;
7899;SDS011;3995;50.856;4.404;2022-12-11T14:53:45;20.25;;;14.82;;
7899;SDS011;3995;50.856;4.404;2022-12-11T14:56:15;22.92;;;16.25;;
7899;SDS011;3995;50.856;4.404;2022-12-11T14:58:50;19.95;;;16.17;;
7899;SDS011;3995;50.856;4.404;2022-12-11T15:01:22;20.10;;;15.48;;
7899;SDS011;3995;50.856;4.404;2022-12-11T15:04:00;19.90;;;15.75;;
7899;SDS011;3995;50.856;4.404;2022-12-11T15:06:29;19.67;;;15.60;;
7899;SDS011;3995;50.856;4.404;2022-12-11T15:09:08;17.08;;;14.00;;
7899;SDS011;3995;50.856;4.404;2022-12-11T15:11:42;17.92;;;14.27;;
7899;SDS011;3995;50.856;4.404;2022-12-11T15:14:12;17.40;;;14.32;;